Terminal Aerodrome Forecast
Issued by NWS Cleveland, OH

Home | Current Version | Previous Version | Text Only | Print | Product List | Glossary Off
Versions: 1 2 3 4 5 6 7 8 9 10 11 12 13 14 15 16 17 18 19 20 21 22 23 24 25 26

147
FTUS41 KCLE 170200 AAB
TAFCLE
TAF AMD
KCLE 170200Z 1702/1806 07005KT 5SM BR SCT035
      TEMPO 1702/1704 BKN035
     FM170400 14004KT 5SM BR BKN035
     FM170900 14004KT 5SM BR BKN025
     FM171500 17006KT P6SM OVC025
     FM171900 17006KT P6SM OVC035
     FM172300 20009KT P6SM OVC035
     FM180400 21009KT 6SM BR OVC030=

USA.gov is the U.S. government's official web portal to all federal, state and local government web resources and services.